sensor_id;sensor_type;location;lat;lon;timestamp;temperature;humidity
33811;DHT22;20119;48.334;16.206;2023-04-24T00:01:58;14.00;99.90
33811;DHT22;20119;48.334;16.206;2023-04-24T00:04:25;14.00;99.90
33811;DHT22;20119;48.334;16.206;2023-04-24T00:06:52;14.10;99.90
33811;DHT22;20119;48.334;16.206;2023-04-24T00:09:23;14.00;99.90
33811;DHT22;20119;48.334;16.206;2023-04-24T00:11:51;14.00;99.90
33811;DHT22;20119;48.334;16.206;2023-04-24T00:14:19;14.00;99.90
33811;DHT22;20119;48.334;16.206;2023-04-24T00:16:46;13.80;99.90
33811;DHT22;20119;48.334;16.206;2023-04-24T00:19:16;13.70;99.90
33811;DHT22;20119;48.334;16.206;2023-04-24T00:21:47;13.70;99.90
33811;DHT22;20119;48.334;16.206;2023-04-24T00:24:16;13.70;99.90
33811;DHT22;20119;48.334;16.206;2023-04-24T00:26:45;13.80;99.90
33811;DHT22;20119;48.334;16.206;2023-04-24T00:29:13;13.80;99.90
33811;DHT22;20119;48.334;16.206;2023-04-24T00:31:40;13.70;99.90
33811;DHT22;20119;48.334;16.206;2023-04-24T00:34:11;13.50;99.90
33811;DHT22;20119;48.334;16.206;2023-04-24T00:36:41;13.20;99.90
33811;DHT22;20119;48.334;16.206;2023-04-24T00:39:08;12.80;99.90
33811;DHT22;20119;48.334;16.206;2023-04-24T00:41:35;12.60;99.90
33811;DHT22;20119;48.334;16.206;2023-04-24T00:44:03;12.40;99.90
33811;DHT22;20119;48.334;16.206;2023-04-24T00:46:30;12.10;99.90
33811;DHT22;20119;48.334;16.206;2023-04-24T00:48:59;12.00;99.90
33811;DHT22;20119;48.334;16.206;2023-04-24T00:51:26;11.80;99.90
33811;DHT22;20119;48.334;16.206;2023-04-24T00:53:55;11.50;99.90
33811;DHT22;20119;48.334;16.206;2023-04-24T00:56:24;11.40;99.90
33811;DHT22;20119;48.334;16.206;2023-04-24T00:58:52;11.30;99.90
33811;DHT22;20119;48.334;16.206;2023-04-24T01:01:21;11.20;99.90
33811;DHT22;20119;48.334;16.206;2023-04-24T01:03:50;11.00;99.90
33811;DHT22;20119;48.334;16.206;2023-04-24T01:06:19;11.00;99.90
33811;DHT22;20119;48.334;16.206;2023-04-24T01:08:47;11.00;99.90
33811;DHT22;20119;48.334;16.206;2023-04-24T01:11:17;10.90;99.90
33811;DHT22;20119;48.334;16.206;2023-04-24T01:13:45;10.90;99.90
33811;DHT22;20119;48.334;16.206;2023-04-24T01:16:13;10.80;99.90
33811;DHT22;20119;48.334;16.206;2023-04-24T01:18:43;10.70;99.90
33811;DHT22;20119;48.334;16.206;2023-04-24T01:21:13;10.70;99.90
33811;DHT22;20119;48.334;16.206;2023-04-24T01:23:43;10.60;99.90
33811;DHT22;20119;48.334;16.206;2023-04-24T01:26:11;10.60;99.90
33811;DHT22;20119;48.334;16.206;2023-04-24T01:28:39;10.50;99.90
33811;DHT22;20119;48.334;16.206;2023-04-24T01:31:06;10.40;99.90
33811;DHT22;20119;48.334;16.206;2023-04-24T01:33:34;10.40;99.90
33811;DHT22;20119;48.334;16.206;2023-04-24T01:36:01;10.30;99.90
33811;DHT22;20119;48.334;16.206;2023-04-24T01:38:28;10.20;99.90
33811;DHT22;20119;48.334;16.206;2023-04-24T01:40:58;10.20;99.90
33811;DHT22;20119;48.334;16.206;2023-04-24T01:43:25;10.10;99.90
33811;DHT22;20119;48.334;16.206;2023-04-24T01:45:54;10.10;99.90
33811;DHT22;20119;48.334;16.206;2023-04-24T01:48:21;10.00;99.90
33811;DHT22;20119;48.334;16.206;2023-04-24T01:50:49;10.00;99.90
33811;DHT22;20119;48.334;16.206;2023-04-24T01:53:16;9.90;99.90
33811;DHT22;20119;48.334;16.206;2023-04-24T01:55:45;9.90;99.90
33811;DHT22;20119;48.334;16.206;2023-04-24T01:58:14;9.90;99.90
33811;DHT22;20119;48.334;16.206;2023-04-24T02:00:41;9.70;99.90
33811;DHT22;20119;48.334;16.206;2023-04-24T02:03:09;9.60;99.90
33811;DHT22;20119;48.334;16.206;2023-04-24T02:05:36;9.60;99.90
33811;DHT22;20119;48.334;16.206;2023-04-24T02:08:03;9.50;99.90
33811;DHT22;20119;48.334;16.206;2023-04-24T02:10:32;9.50;99.90
33811;DHT22;20119;48.334;16.206;2023-04-24T02:12:59;9.60;99.90
33811;DHT22;20119;48.334;16.206;2023-04-24T02:15:28;9.60;99.90
33811;DHT22;20119;48.334;16.206;2023-04-24T02:17:56;9.60;99.90
33811;DHT22;20119;48.334;16.206;2023-04-24T02:20:24;9.50;99.90
33811;DHT22;20119;48.334;16.206;2023-04-24T02:22:51;9.60;99.90
33811;DHT22;20119;48.334;16.206;2023-04-24T02:25:19;9.50;99.90
33811;DHT22;20119;48.334;16.206;2023-04-24T02:27:46;9.50;99.90
33811;DHT22;20119;48.334;16.206;2023-04-24T02:30:14;9.40;99.90
33811;DHT22;20119;48.334;16.206;2023-04-24T02:32:43;9.30;99.90
33811;DHT22;20119;48.334;16.206;2023-04-24T02:35:10;9.30;99.90
33811;DHT22;20119;48.334;16.206;2023-04-24T02:37:37;9.30;99.90
33811;DHT22;20119;48.334;16.206;2023-04-24T02:40:05;9.30;99.90
33811;DHT22;20119;48.334;16.206;2023-04-24T02:42:34;9.30;99.90
33811;DHT22;20119;48.334;16.206;2023-04-24T02:45:01;9.30;99.90
33811;DHT22;20119;48.334;16.206;2023-04-24T02:47:29;9.40;99.90
33811;DHT22;20119;48.334;16.206;2023-04-24T02:49:58;9.40;99.90
33811;DHT22;20119;48.334;16.206;2023-04-24T02:52:25;9.40;99.90
33811;DHT22;20119;48.334;16.206;2023-04-24T02:54:52;9.40;99.90
33811;DHT22;20119;48.334;16.206;2023-04-24T02:57:20;9.40;99.90
33811;DHT22;20119;48.334;16.206;2023-04-24T02:59:47;9.50;99.90
33811;DHT22;20119;48.334;16.206;2023-04-24T03:02:15;9.50;99.90
33811;DHT22;20119;48.334;16.206;2023-04-24T03:04:42;9.60;99.90
33811;DHT22;20119;48.334;16.206;2023-04-24T03:07:12;9.50;99.90
33811;DHT22;20119;48.334;16.206;2023-04-24T03:09:40;9.50;99.90
33811;DHT22;20119;48.334;16.206;2023-04-24T03:12:07;9.50;99.90
33811;DHT22;20119;48.334;16.206;2023-04-24T03:14:35;9.50;99.90
33811;DHT22;20119;48.334;16.206;2023-04-24T03:17:02;9.50;99.90
33811;DHT22;20119;48.334;16.206;2023-04-24T03:19:31;9.50;99.90
33811;DHT22;20119;48.334;16.206;2023-04-24T03:22:01;9.50;99.90
33811;DHT22;20119;48.334;16.206;2023-04-24T03:24:31;9.40;99.90
33811;DHT22;20119;48.334;16.206;2023-04-24T03:26:58;9.40;99.90
33811;DHT22;20119;48.334;16.206;2023-04-24T03:29:25;9.30;99.90
33811;DHT22;20119;48.334;16.206;2023-04-24T03:31:53;9.30;99.90
33811;DHT22;20119;48.334;16.206;2023-04-24T03:34:20;9.30;99.90
33811;DHT22;20119;48.334;16.206;2023-04-24T03:36:48;9.30;99.90
33811;DHT22;20119;48.334;16.206;2023-04-24T03:39:15;9.30;99.90
33811;DHT22;20119;48.334;16.206;2023-04-24T03:41:44;9.40;99.90
33811;DHT22;20119;48.334;16.206;2023-04-24T03:44:11;9.40;99.90
33811;DHT22;20119;48.334;16.206;2023-04-24T03:46:38;9.30;99.90
33811;DHT22;20119;48.334;16.206;2023-04-24T03:49:06;9.30;99.90
33811;DHT22;20119;48.334;16.206;2023-04-24T03:51:34;9.30;99.90
33811;DHT22;20119;48.334;16.206;2023-04-24T03:54:02;9.30;99.90
33811;DHT22;20119;48.334;16.206;2023-04-24T03:56:30;9.30;99.90
33811;DHT22;20119;48.334;16.206;2023-04-24T03:59:00;9.30;99.90
33811;DHT22;20119;48.334;16.206;2023-04-24T04:01:28;9.40;99.90
33811;DHT22;20119;48.334;16.206;2023-04-24T04:03:56;9.40;99.90
33811;DHT22;20119;48.334;16.206;2023-04-24T04:06:24;9.50;99.90
33811;DHT22;20119;48.334;16.206;2023-04-24T04:08:52;9.60;99.90
33811;DHT22;20119;48.334;16.206;2023-04-24T04:11:20;9.80;99.90
33811;DHT22;20119;48.334;16.206;2023-04-24T04:13:47;9.90;99.90
33811;DHT22;20119;48.334;16.206;2023-04-24T04:16:16;10.00;99.90
33811;DHT22;20119;48.334;16.206;2023-04-24T04:18:43;10.20;99.90
33811;DHT22;20119;48.334;16.206;2023-04-24T04:21:10;10.40;99.90
33811;DHT22;20119;48.334;16.206;2023-04-24T04:23:39;10.60;99.90
33811;DHT22;20119;48.334;16.206;2023-04-24T04:26:07;10.90;99.90
33811;DHT22;20119;48.334;16.206;2023-04-24T04:28:34;11.10;99.90
33811;DHT22;20119;48.334;16.206;2023-04-24T04:31:03;11.30;99.90
33811;DHT22;20119;48.334;16.206;2023-04-24T04:33:33;11.60;99.90
33811;DHT22;20119;48.334;16.206;2023-04-24T04:36:01;11.80;99.90
33811;DHT22;20119;48.334;16.206;2023-04-24T04:38:30;12.00;99.90
33811;DHT22;20119;48.334;16.206;2023-04-24T04:40:58;12.40;99.90
33811;DHT22;20119;48.334;16.206;2023-04-24T04:43:26;12.30;99.90
33811;DHT22;20119;48.334;16.206;2023-04-24T04:45:54;12.60;99.90
33811;DHT22;20119;48.334;16.206;2023-04-24T04:48:21;12.80;99.90
33811;DHT22;20119;48.334;16.206;2023-04-24T04:50:50;12.90;99.90
33811;DHT22;20119;48.334;16.206;2023-04-24T04:53:19;13.00;99.90
33811;DHT22;20119;48.334;16.206;2023-04-24T04:55:47;13.00;99.90
33811;DHT22;20119;48.334;16.206;2023-04-24T04:58:15;13.00;99.90
33811;DHT22;20119;48.334;16.206;2023-04-24T05:00:43;13.00;99.90
33811;DHT22;20119;48.334;16.206;2023-04-24T05:03:12;13.00;99.90
33811;DHT22;20119;48.334;16.206;2023-04-24T05:05:39;13.10;99.90
33811;DHT22;20119;48.334;16.206;2023-04-24T05:08:08;13.10;99.90
33811;DHT22;20119;48.334;16.206;2023-04-24T05:10:35;13.60;99.90
33811;DHT22;20119;48.334;16.206;2023-04-24T05:13:02;13.90;99.90
33811;DHT22;20119;48.334;16.206;2023-04-24T05:15:30;14.10;99.90
33811;DHT22;20119;48.334;16.206;2023-04-24T05:17:57;14.50;99.90
33811;DHT22;20119;48.334;16.206;2023-04-24T05:20:25;14.30;99.90
33811;DHT22;20119;48.334;16.206;2023-04-24T05:22:53;14.40;99.90
33811;DHT22;20119;48.334;16.206;2023-04-24T05:25:22;14.40;99.90
33811;DHT22;20119;48.334;16.206;2023-04-24T05:27:50;14.70;99.90
33811;DHT22;20119;48.334;16.206;2023-04-24T05:30:19;14.90;99.90
33811;DHT22;20119;48.334;16.206;2023-04-24T05:32:46;15.00;99.90
33811;DHT22;20119;48.334;16.206;2023-04-24T05:35:14;14.80;99.90
33811;DHT22;20119;48.334;16.206;2023-04-24T05:37:41;14.80;99.90
33811;DHT22;20119;48.334;16.206;2023-04-24T05:40:10;15.30;99.90
33811;DHT22;20119;48.334;16.206;2023-04-24T05:42:39;15.60;99.90
33811;DHT22;20119;48.334;16.206;2023-04-24T05:45:07;15.50;99.90
33811;DHT22;20119;48.334;16.206;2023-04-24T05:47:35;15.20;99.90
33811;DHT22;20119;48.334;16.206;2023-04-24T05:50:04;15.40;99.90
33811;DHT22;20119;48.334;16.206;2023-04-24T05:52:31;15.50;99.90
33811;DHT22;20119;48.334;16.206;2023-04-24T05:54:59;15.60;99.90
33811;DHT22;20119;48.334;16.206;2023-04-24T05:57:27;15.50;99.90
33811;DHT22;20119;48.334;16.206;2023-04-24T05:59:56;15.70;99.90
33811;DHT22;20119;48.334;16.206;2023-04-24T06:02:23;15.60;99.90
33811;DHT22;20119;48.334;16.206;2023-04-24T06:04:51;15.50;99.90
33811;DHT22;20119;48.334;16.206;2023-04-24T06:07:19;15.50;99.90
33811;DHT22;20119;48.334;16.206;2023-04-24T06:09:47;15.40;99.90
33811;DHT22;20119;48.334;16.206;2023-04-24T06:12:14;15.30;99.90
33811;DHT22;20119;48.334;16.206;2023-04-24T06:14:42;15.50;99.90
33811;DHT22;20119;48.334;16.206;2023-04-24T06:17:12;15.60;99.90
33811;DHT22;20119;48.334;16.206;2023-04-24T06:19:39;16.00;99.90
33811;DHT22;20119;48.334;16.206;2023-04-24T06:22:07;16.10;99.90
33811;DHT22;20119;48.334;16.206;2023-04-24T06:24:35;16.20;99.90
33811;DHT22;20119;48.334;16.206;2023-04-24T06:27:02;16.50;99.90
33811;DHT22;20119;48.334;16.206;2023-04-24T06:29:30;16.50;99.90
33811;DHT22;20119;48.334;16.206;2023-04-24T06:31:58;16.40;99.90
33811;DHT22;20119;48.334;16.206;2023-04-24T06:34:27;16.30;99.90
33811;DHT22;20119;48.334;16.206;2023-04-24T06:36:56;16.10;99.90
33811;DHT22;20119;48.334;16.206;2023-04-24T06:39:24;16.30;99.90
33811;DHT22;20119;48.334;16.206;2023-04-24T06:41:51;16.50;99.90
33811;DHT22;20119;48.334;16.206;2023-04-24T06:44:19;16.70;99.90
33811;DHT22;20119;48.334;16.206;2023-04-24T06:46:47;16.60;99.90
33811;DHT22;20119;48.334;16.206;2023-04-24T06:49:14;16.60;99.90
33811;DHT22;20119;48.334;16.206;2023-04-24T06:51:45;16.20;99.90
33811;DHT22;20119;48.334;16.206;2023-04-24T06:54:12;16.40;99.90
33811;DHT22;20119;48.334;16.206;2023-04-24T06:56:40;16.40;99.90
33811;DHT22;20119;48.334;16.206;2023-04-24T06:59:07;16.50;99.90
33811;DHT22;20119;48.334;16.206;2023-04-24T07:01:34;16.60;99.90
33811;DHT22;20119;48.334;16.206;2023-04-24T07:04:02;16.60;99.90
33811;DHT22;20119;48.334;16.206;2023-04-24T07:06:30;16.80;99.90
33811;DHT22;20119;48.334;16.206;2023-04-24T07:09:00;16.80;99.90
33811;DHT22;20119;48.334;16.206;2023-04-24T07:11:27;16.70;99.90
33811;DHT22;20119;48.334;16.206;2023-04-24T07:13:55;16.80;99.90
33811;DHT22;20119;48.334;16.206;2023-04-24T07:16:23;16.60;99.90
33811;DHT22;20119;48.334;16.206;2023-04-24T07:18:51;16.50;99.90
33811;DHT22;20119;48.334;16.206;2023-04-24T07:21:19;16.20;99.90
33811;DHT22;20119;48.334;16.206;2023-04-24T07:23:46;16.40;99.90
33811;DHT22;20119;48.334;16.206;2023-04-24T07:26:16;16.30;99.90
33811;DHT22;20119;48.334;16.206;2023-04-24T07:28:43;16.40;99.90
33811;DHT22;20119;48.334;16.206;2023-04-24T07:31:11;16.40;99.90
33811;DHT22;20119;48.334;16.206;2023-04-24T07:33:39;16.60;99.90
33811;DHT22;20119;48.334;16.206;2023-04-24T07:36:07;16.60;99.90
33811;DHT22;20119;48.334;16.206;2023-04-24T07:38:41;16.70;99.90
33811;DHT22;20119;48.334;16.206;2023-04-24T07:41:08;16.80;99.90
33811;DHT22;20119;48.334;16.206;2023-04-24T07:43:38;16.40;99.90
33811;DHT22;20119;48.334;16.206;2023-04-24T07:46:05;16.30;99.90
33811;DHT22;20119;48.334;16.206;2023-04-24T07:48:33;16.30;99.90
33811;DHT22;20119;48.334;16.206;2023-04-24T07:51:01;16.20;99.90
33811;DHT22;20119;48.334;16.206;2023-04-24T07:53:28;16.30;99.90
33811;DHT22;20119;48.334;16.206;2023-04-24T07:55:56;16.40;99.90
33811;DHT22;20119;48.334;16.206;2023-04-24T07:58:23;16.30;99.90
33811;DHT22;20119;48.334;16.206;2023-04-24T08:00:53;16.30;99.90
33811;DHT22;20119;48.334;16.206;2023-04-24T08:06:06;16.20;99.90
33811;DHT22;20119;48.334;16.206;2023-04-24T08:08:34;16.20;99.90
33811;DHT22;20119;48.334;16.206;2023-04-24T08:11:02;16.40;99.90
33811;DHT22;20119;48.334;16.206;2023-04-24T08:13:29;16.30;99.90
33811;DHT22;20119;48.334;16.206;2023-04-24T08:15:58;16.10;99.90
33811;DHT22;20119;48.334;16.206;2023-04-24T08:18:25;16.10;99.90
33811;DHT22;20119;48.334;16.206;2023-04-24T08:20:53;16.20;99.90
33811;DHT22;20119;48.334;16.206;2023-04-24T08:23:21;16.20;99.90
33811;DHT22;20119;48.334;16.206;2023-04-24T08:25:50;16.00;99.90
33811;DHT22;20119;48.334;16.206;2023-04-24T08:28:17;15.80;99.90
33811;DHT22;20119;48.334;16.206;2023-04-24T08:30:46;15.40;99.90
33811;DHT22;20119;48.334;16.206;2023-04-24T08:33:15;15.40;99.90
33811;DHT22;20119;48.334;16.206;2023-04-24T08:35:44;15.50;99.90
33811;DHT22;20119;48.334;16.206;2023-04-24T08:38:11;15.30;99.90
33811;DHT22;20119;48.334;16.206;2023-04-24T08:40:39;15.20;99.90
33811;DHT22;20119;48.334;16.206;2023-04-24T08:43:07;15.30;99.90
33811;DHT22;20119;48.334;16.206;2023-04-24T08:45:35;15.20;99.90
33811;DHT22;20119;48.334;16.206;2023-04-24T08:48:04;15.10;99.90
33811;DHT22;20119;48.334;16.206;2023-04-24T08:50:37;15.10;99.90
33811;DHT22;20119;48.334;16.206;2023-04-24T08:53:07;15.20;99.90
33811;DHT22;20119;48.334;16.206;2023-04-24T08:58:24;14.50;99.90
33811;DHT22;20119;48.334;16.206;2023-04-24T09:00:53;14.50;99.90
33811;DHT22;20119;48.334;16.206;2023-04-24T09:03:22;14.40;99.90
33811;DHT22;20119;48.334;16.206;2023-04-24T09:05:52;14.50;99.90
33811;DHT22;20119;48.334;16.206;2023-04-24T09:08:25;14.30;99.90
33811;DHT22;20119;48.334;16.206;2023-04-24T09:10:53;14.20;99.90
33811;DHT22;20119;48.334;16.206;2023-04-24T09:13:24;14.00;99.90
33811;DHT22;20119;48.334;16.206;2023-04-24T09:15:51;13.90;99.90
33811;DHT22;20119;48.334;16.206;2023-04-24T09:18:19;14.00;99.90
33811;DHT22;20119;48.334;16.206;2023-04-24T09:21:02;13.80;99.90
33811;DHT22;20119;48.334;16.206;2023-04-24T09:23:31;13.70;99.90
33811;DHT22;20119;48.334;16.206;2023-04-24T09:25:59;13.70;99.90
33811;DHT22;20119;48.334;16.206;2023-04-24T09:28:31;13.60;99.90
33811;DHT22;20119;48.334;16.206;2023-04-24T09:31:05;13.50;99.90
33811;DHT22;20119;48.334;16.206;2023-04-24T09:33:34;13.40;99.90
33811;DHT22;20119;48.334;16.206;2023-04-24T09:36:03;13.40;99.90
33811;DHT22;20119;48.334;16.206;2023-04-24T09:38:32;13.40;99.90
33811;DHT22;20119;48.334;16.206;2023-04-24T09:41:02;13.40;99.90
33811;DHT22;20119;48.334;16.206;2023-04-24T09:43:30;13.30;99.90
33811;DHT22;20119;48.334;16.206;2023-04-24T09:45:59;13.30;99.90
33811;DHT22;20119;48.334;16.206;2023-04-24T09:48:31;13.30;99.90
33811;DHT22;20119;48.334;16.206;2023-04-24T09:51:00;13.30;99.90
33811;DHT22;20119;48.334;16.206;2023-04-24T09:53:30;13.40;99.90
33811;DHT22;20119;48.334;16.206;2023-04-24T09:56:02;13.30;99.90
33811;DHT22;20119;48.334;16.206;2023-04-24T09:58:29;13.30;99.90
33811;DHT22;20119;48.334;16.206;2023-04-24T10:00:57;13.20;99.90
33811;DHT22;20119;48.334;16.206;2023-04-24T10:03:25;13.30;99.90
33811;DHT22;20119;48.334;16.206;2023-04-24T10:05:58;13.30;99.90
33811;DHT22;20119;48.334;16.206;2023-04-24T10:08:25;13.20;99.90
33811;DHT22;20119;48.334;16.206;2023-04-24T10:10:55;13.20;99.90
33811;DHT22;20119;48.334;16.206;2023-04-24T10:13:24;13.20;99.90
33811;DHT22;20119;48.334;16.206;2023-04-24T10:15:52;13.20;99.90
33811;DHT22;20119;48.334;16.206;2023-04-24T10:18:20;13.30;99.90
33811;DHT22;20119;48.334;16.206;2023-04-24T10:20:50;13.20;99.90
33811;DHT22;20119;48.334;16.206;2023-04-24T10:23:18;13.30;99.90
33811;DHT22;20119;48.334;16.206;2023-04-24T10:25:48;13.40;99.90
33811;DHT22;20119;48.334;16.206;2023-04-24T10:28:17;13.30;99.90
33811;DHT22;20119;48.334;16.206;2023-04-24T10:30:47;13.20;99.90
33811;DHT22;20119;48.334;16.206;2023-04-24T10:33:17;13.20;99.90
33811;DHT22;20119;48.334;16.206;2023-04-24T10:35:46;13.20;99.90
33811;DHT22;20119;48.334;16.206;2023-04-24T10:38:18;13.30;99.90
33811;DHT22;20119;48.334;16.206;2023-04-24T10:40:49;13.30;99.90
33811;DHT22;20119;48.334;16.206;2023-04-24T10:43:19;13.40;99.90
33811;DHT22;20119;48.334;16.206;2023-04-24T10:46:01;13.40;99.90
33811;DHT22;20119;48.334;16.206;2023-04-24T10:48:29;13.30;99.90
33811;DHT22;20119;48.334;16.206;2023-04-24T10:50:58;13.30;99.90
33811;DHT22;20119;48.334;16.206;2023-04-24T10:53:29;13.40;99.90
33811;DHT22;20119;48.334;16.206;2023-04-24T10:56:03;13.50;99.90
33811;DHT22;20119;48.334;16.206;2023-04-24T10:58:40;13.60;99.90
33811;DHT22;20119;48.334;16.206;2023-04-24T11:01:23;13.60;99.90
33811;DHT22;20119;48.334;16.206;2023-04-24T11:03:55;13.70;99.90
33811;DHT22;20119;48.334;16.206;2023-04-24T11:06:29;13.60;99.90
33811;DHT22;20119;48.334;16.206;2023-04-24T11:09:03;13.70;99.90
33811;DHT22;20119;48.334;16.206;2023-04-24T11:11:33;13.60;99.90
33811;DHT22;20119;48.334;16.206;2023-04-24T11:14:06;13.70;99.90
33811;DHT22;20119;48.334;16.206;2023-04-24T11:16:36;13.50;99.90
33811;DHT22;20119;48.334;16.206;2023-04-24T11:19:06;13.40;99.90
33811;DHT22;20119;48.334;16.206;2023-04-24T11:21:42;13.30;99.90
33811;DHT22;20119;48.334;16.206;2023-04-24T11:24:31;13.20;99.90
33811;DHT22;20119;48.334;16.206;2023-04-24T11:27:04;13.30;99.90
33811;DHT22;20119;48.334;16.206;2023-04-24T11:29:41;13.30;99.90
33811;DHT22;20119;48.334;16.206;2023-04-24T11:32:23;13.20;99.90
33811;DHT22;20119;48.334;16.206;2023-04-24T11:34:52;13.20;99.90
33811;DHT22;20119;48.334;16.206;2023-04-24T11:37:20;13.20;99.90
33811;DHT22;20119;48.334;16.206;2023-04-24T11:39:47;13.30;99.90
33811;DHT22;20119;48.334;16.206;2023-04-24T11:42:18;13.40;99.90
33811;DHT22;20119;48.334;16.206;2023-04-24T11:44:49;13.30;99.90
33811;DHT22;20119;48.334;16.206;2023-04-24T11:47:16;13.30;99.90
33811;DHT22;20119;48.334;16.206;2023-04-24T11:49:45;13.50;99.90
33811;DHT22;20119;48.334;16.206;2023-04-24T11:52:31;13.60;99.90
33811;DHT22;20119;48.334;16.206;2023-04-24T11:54:59;13.70;99.90
33811;DHT22;20119;48.334;16.206;2023-04-24T11:57:27;13.80;99.90
33811;DHT22;20119;48.334;16.206;2023-04-24T12:00:00;13.90;99.90
33811;DHT22;20119;48.334;16.206;2023-04-24T12:02:28;14.20;99.90
33811;DHT22;20119;48.334;16.206;2023-04-24T12:04:56;14.30;99.90
33811;DHT22;20119;48.334;16.206;2023-04-24T12:07:23;14.00;99.90
33811;DHT22;20119;48.334;16.206;2023-04-24T12:09:56;14.20;99.90
33811;DHT22;20119;48.334;16.206;2023-04-24T12:12:27;14.20;99.90
33811;DHT22;20119;48.334;16.206;2023-04-24T12:14:56;14.20;99.90
33811;DHT22;20119;48.334;16.206;2023-04-24T12:17:26;14.40;99.90
33811;DHT22;20119;48.334;16.206;2023-04-24T12:19:58;14.80;99.90
33811;DHT22;20119;48.334;16.206;2023-04-24T12:22:27;14.50;99.90
33811;DHT22;20119;48.334;16.206;2023-04-24T12:30:09;14.90;99.90
33811;DHT22;20119;48.334;16.206;2023-04-24T12:32:45;15.30;99.90
33811;DHT22;20119;48.334;16.206;2023-04-24T12:40:25;16.30;99.90
33811;DHT22;20119;48.334;16.206;2023-04-24T12:42:52;16.50;99.90
33811;DHT22;20119;48.334;16.206;2023-04-24T12:45:20;16.70;99.90
33811;DHT22;20119;48.334;16.206;2023-04-24T12:47:52;16.80;99.90
33811;DHT22;20119;48.334;16.206;2023-04-24T12:50:19;16.80;99.90
33811;DHT22;20119;48.334;16.206;2023-04-24T12:52:47;16.50;99.90
33811;DHT22;20119;48.334;16.206;2023-04-24T12:55:14;16.60;99.90
33811;DHT22;20119;48.334;16.206;2023-04-24T12:57:42;16.30;99.90
33811;DHT22;20119;48.334;16.206;2023-04-24T13:00:09;16.20;99.90
33811;DHT22;20119;48.334;16.206;2023-04-24T13:02:37;16.10;99.90
33811;DHT22;20119;48.334;16.206;2023-04-24T13:05:06;16.00;99.90
33811;DHT22;20119;48.334;16.206;2023-04-24T13:07:33;16.00;99.90
33811;DHT22;20119;48.334;16.206;2023-04-24T13:10:01;16.20;99.90
33811;DHT22;20119;48.334;16.206;2023-04-24T13:12:30;16.40;99.90
33811;DHT22;20119;48.334;16.206;2023-04-24T13:14:58;16.80;99.90
33811;DHT22;20119;48.334;16.206;2023-04-24T13:17:29;16.60;99.90
33811;DHT22;20119;48.334;16.206;2023-04-24T13:19:56;16.50;99.90
33811;DHT22;20119;48.334;16.206;2023-04-24T13:22:26;16.60;99.90
33811;DHT22;20119;48.334;16.206;2023-04-24T13:24:53;16.40;99.90
33811;DHT22;20119;48.334;16.206;2023-04-24T13:27:20;16.40;99.90
33811;DHT22;20119;48.334;16.206;2023-04-24T13:29:48;16.10;99.90
33811;DHT22;20119;48.334;16.206;2023-04-24T13:32:17;16.00;99.90
33811;DHT22;20119;48.334;16.206;2023-04-24T13:34:45;15.50;99.90
33811;DHT22;20119;48.334;16.206;2023-04-24T13:37:13;15.30;99.90
33811;DHT22;20119;48.334;16.206;2023-04-24T13:39:42;15.40;99.90
33811;DHT22;20119;48.334;16.206;2023-04-24T13:42:09;15.10;99.90
33811;DHT22;20119;48.334;16.206;2023-04-24T13:44:36;15.00;99.90
33811;DHT22;20119;48.334;16.206;2023-04-24T13:49:43;14.90;99.90
33811;DHT22;20119;48.334;16.206;2023-04-24T14:02:47;15.00;99.90
33811;DHT22;20119;48.334;16.206;2023-04-24T14:05:14;15.10;99.90
33811;DHT22;20119;48.334;16.206;2023-04-24T14:07:41;15.00;99.90
33811;DHT22;20119;48.334;16.206;2023-04-24T14:10:09;15.10;99.90
33811;DHT22;20119;48.334;16.206;2023-04-24T14:12:37;14.90;99.90
33811;DHT22;20119;48.334;16.206;2023-04-24T14:15:05;14.90;99.90
33811;DHT22;20119;48.334;16.206;2023-04-24T14:17:34;14.80;99.90
33811;DHT22;20119;48.334;16.206;2023-04-24T14:20:04;14.80;99.90
33811;DHT22;20119;48.334;16.206;2023-04-24T14:22:31;14.60;99.90
33811;DHT22;20119;48.334;16.206;2023-04-24T14:24:59;14.40;99.90
33811;DHT22;20119;48.334;16.206;2023-04-24T14:27:27;14.40;99.90
33811;DHT22;20119;48.334;16.206;2023-04-24T14:29:55;14.40;99.90
33811;DHT22;20119;48.334;16.206;2023-04-24T14:32:23;14.30;99.90
33811;DHT22;20119;48.334;16.206;2023-04-24T14:34:51;14.20;99.90
33811;DHT22;20119;48.334;16.206;2023-04-24T14:37:21;14.20;99.90
33811;DHT22;20119;48.334;16.206;2023-04-24T14:39:49;14.20;99.90
33811;DHT22;20119;48.334;16.206;2023-04-24T14:42:16;14.30;99.90
33811;DHT22;20119;48.334;16.206;2023-04-24T14:44:46;14.30;99.90
33811;DHT22;20119;48.334;16.206;2023-04-24T14:47:13;14.30;99.90
33811;DHT22;20119;48.334;16.206;2023-04-24T14:49:43;14.00;99.90
33811;DHT22;20119;48.334;16.206;2023-04-24T14:52:10;13.90;99.90
33811;DHT22;20119;48.334;16.206;2023-04-24T14:54:40;13.90;99.90
33811;DHT22;20119;48.334;16.206;2023-04-24T14:59:43;13.90;99.90
33811;DHT22;20119;48.334;16.206;2023-04-24T15:02:14;13.90;99.90
33811;DHT22;20119;48.334;16.206;2023-04-24T15:04:41;13.90;99.90
33811;DHT22;20119;48.334;16.206;2023-04-24T15:07:09;14.00;99.90
33811;DHT22;20119;48.334;16.206;2023-04-24T15:09:39;13.90;99.90
33811;DHT22;20119;48.334;16.206;2023-04-24T15:12:23;13.90;99.90
33811;DHT22;20119;48.334;16.206;2023-04-24T15:14:53;13.80;99.90
33811;DHT22;20119;48.334;16.206;2023-04-24T15:17:21;13.80;99.90
33811;DHT22;20119;48.334;16.206;2023-04-24T15:19:49;13.90;99.90
33811;DHT22;20119;48.334;16.206;2023-04-24T15:22:16;13.80;99.90
33811;DHT22;20119;48.334;16.206;2023-04-24T15:24:46;13.70;99.90
33811;DHT22;20119;48.334;16.206;2023-04-24T15:27:15;13.60;99.90
33811;DHT22;20119;48.334;16.206;2023-04-24T15:29:42;13.40;99.90
33811;DHT22;20119;48.334;16.206;2023-04-24T15:32:10;13.10;99.90
33811;DHT22;20119;48.334;16.206;2023-04-24T15:34:37;12.90;99.90
33811;DHT22;20119;48.334;16.206;2023-04-24T15:37:06;12.30;99.90
33811;DHT22;20119;48.334;16.206;2023-04-24T15:39:34;12.10;99.90
33811;DHT22;20119;48.334;16.206;2023-04-24T15:42:03;12.00;99.90
33811;DHT22;20119;48.334;16.206;2023-04-24T15:44:31;11.80;99.90
33811;DHT22;20119;48.334;16.206;2023-04-24T15:47:01;11.60;99.90
33811;DHT22;20119;48.334;16.206;2023-04-24T15:49:28;11.60;99.90
33811;DHT22;20119;48.334;16.206;2023-04-24T15:51:56;11.60;99.90
33811;DHT22;20119;48.334;16.206;2023-04-24T15:54:24;11.60;99.90
33811;DHT22;20119;48.334;16.206;2023-04-24T15:56:52;11.50;99.90
33811;DHT22;20119;48.334;16.206;2023-04-24T15:59:22;11.40;99.90